createdAt,value
2023-05-15T00:00:57.022Z,12.99
2023-05-15T00:01:57.059Z,13.03
2023-05-15T00:02:57.278Z,13.06
2023-05-15T00:03:57.118Z,13.10
2023-05-15T00:04:57.237Z,13.02
2023-05-15T00:05:57.163Z,12.99
2023-05-15T00:06:57.212Z,12.95
2023-05-15T00:07:57.221Z,12.99
2023-05-15T00:08:57.249Z,13.01
2023-05-15T00:09:57.275Z,13.02
2023-05-15T00:11:01.459Z,12.99
2023-05-15T00:11:57.336Z,12.95
2023-05-15T00:12:57.382Z,12.94
2023-05-15T00:13:57.391Z,12.88
2023-05-15T00:14:57.419Z,12.89
2023-05-15T00:15:57.504Z,12.94
2023-05-15T00:16:57.480Z,12.84
2023-05-15T00:17:57.564Z,12.91
2023-05-15T00:18:57.562Z,12.83
2023-05-15T00:19:57.567Z,12.88
2023-05-15T00:20:57.589Z,12.77
2023-05-15T00:21:57.622Z,12.78
2023-05-15T00:22:57.661Z,12.78
2023-05-15T00:23:57.669Z,12.69
2023-05-15T00:24:57.696Z,12.73
2023-05-15T00:25:57.726Z,12.63
2023-05-15T00:26:57.751Z,12.78
2023-05-15T00:27:57.781Z,12.70
2023-05-15T00:28:57.812Z,12.74
2023-05-15T00:29:57.841Z,12.66
2023-05-15T00:30:57.904Z,12.71
2023-05-15T00:31:58.124Z,12.73
2023-05-15T00:32:57.989Z,12.70
2023-05-15T00:33:57.952Z,12.65
2023-05-15T00:34:57.982Z,12.73
2023-05-15T00:35:58.006Z,12.58
2023-05-15T00:36:58.037Z,12.70
2023-05-15T00:37:58.077Z,12.59
2023-05-15T00:38:58.109Z,12.62
2023-05-15T00:39:58.121Z,12.63
2023-05-15T00:40:58.155Z,12.62
2023-05-15T00:42:00.085Z,12.63
2023-05-15T00:42:58.203Z,12.52
2023-05-15T00:43:58.250Z,12.48
2023-05-15T00:44:58.263Z,12.48
2023-05-15T00:45:58.290Z,12.47
2023-05-15T00:46:58.331Z,12.45
2023-05-15T00:47:58.411Z,12.37
2023-05-15T00:48:58.370Z,12.41
2023-05-15T00:49:58.407Z,12.40
2023-05-15T00:50:58.427Z,12.37
2023-05-15T00:51:58.462Z,12.45
2023-05-15T00:52:58.487Z,12.38
2023-05-15T00:53:58.569Z,12.40
2023-05-15T00:54:58.569Z,12.44
2023-05-15T00:55:58.588Z,12.48
2023-05-15T00:56:58.595Z,12.31
2023-05-15T00:57:58.625Z,12.33
2023-05-15T00:58:58.651Z,12.37
2023-05-15T00:59:58.682Z,12.44
2023-05-15T01:00:58.754Z,12.31
2023-05-15T01:01:58.783Z,12.36
2023-05-15T01:02:58.808Z,12.44
2023-05-15T01:03:58.794Z,12.34
2023-05-15T01:04:58.818Z,12.37
2023-05-15T01:05:58.847Z,12.37
2023-05-15T01:06:58.872Z,12.33
2023-05-15T01:07:58.902Z,12.34
2023-05-15T01:08:58.935Z,12.40
2023-05-15T01:09:58.958Z,12.38
2023-05-15T01:10:59.001Z,12.34
2023-05-15T01:11:59.017Z,12.34
2023-05-15T01:12:59.037Z,12.26
2023-05-15T01:13:59.070Z,12.43
2023-05-15T01:14:59.099Z,12.38
2023-05-15T01:15:59.123Z,12.29
2023-05-15T01:16:59.149Z,12.29
2023-05-15T01:17:59.205Z,12.26
2023-05-15T01:18:59.265Z,12.29
2023-05-15T01:19:59.288Z,12.34
2023-05-15T01:20:59.261Z,12.28
2023-05-15T01:21:59.290Z,12.31
2023-05-15T01:22:59.323Z,12.23
2023-05-15T01:23:59.341Z,12.26
2023-05-15T01:24:59.379Z,12.25
2023-05-15T01:25:59.393Z,12.23
2023-05-15T01:26:59.442Z,12.15
2023-05-15T01:27:59.475Z,12.28
2023-05-15T01:28:59.482Z,12.22
2023-05-15T01:29:59.526Z,12.23
2023-05-15T01:30:59.535Z,12.25
2023-05-15T01:31:59.610Z,12.20
2023-05-15T01:32:59.618Z,12.05
2023-05-15T01:33:59.617Z,12.13
2023-05-15T01:34:59.653Z,12.16
2023-05-15T01:35:59.671Z,12.07
2023-05-15T01:36:59.710Z,12.22
2023-05-15T01:37:59.726Z,12.20
2023-05-15T01:38:59.750Z,12.08
2023-05-15T01:39:59.780Z,12.11
2023-05-15T01:40:59.816Z,12.07
2023-05-15T01:41:59.835Z,12.08
2023-05-15T01:42:59.885Z,12.13
2023-05-15T01:43:59.988Z,12.13
2023-05-15T01:45:00.068Z,12.08
2023-05-15T01:46:00.069Z,12.05
2023-05-15T01:46:59.972Z,12.10
2023-05-15T01:48:00.046Z,12.13
2023-05-15T01:49:00.030Z,12.13
2023-05-15T01:50:00.053Z,12.10
2023-05-15T01:51:00.105Z,12.11
2023-05-15T01:52:00.105Z,12.07
2023-05-15T01:53:00.153Z,12.08
2023-05-15T01:54:00.167Z,12.07
2023-05-15T01:55:00.203Z,12.10
2023-05-15T01:56:00.215Z,12.08
2023-05-15T01:57:00.245Z,12.04
2023-05-15T01:58:00.270Z,12.03
2023-05-15T01:59:00.314Z,12.10
2023-05-15T02:00:00.369Z,12.03
2023-05-15T02:01:00.357Z,12.05
2023-05-15T02:02:00.455Z,12.13
2023-05-15T02:03:00.523Z,12.13
2023-05-15T02:04:00.563Z,12.08
2023-05-15T02:05:00.464Z,12.04
2023-05-15T02:06:00.490Z,12.05
2023-05-15T02:07:00.525Z,12.08
2023-05-15T02:08:00.547Z,12.11
2023-05-15T02:09:00.575Z,12.20
2023-05-15T02:10:00.616Z,12.28
2023-05-15T02:11:00.636Z,12.25
2023-05-15T02:12:00.663Z,12.28
2023-05-15T02:13:00.690Z,12.26
2023-05-15T02:14:00.713Z,12.40
2023-05-15T02:15:00.759Z,12.45
2023-05-15T02:16:00.806Z,12.45
2023-05-15T02:17:00.801Z,12.52
2023-05-15T02:18:00.893Z,12.52
2023-05-15T02:19:00.910Z,12.70
2023-05-15T02:20:00.881Z,12.63
2023-05-15T02:21:00.923Z,12.71
2023-05-15T02:22:00.936Z,12.78
2023-05-15T02:23:00.990Z,12.78
2023-05-15T02:24:00.993Z,12.80
2023-05-15T02:25:01.019Z,12.77
2023-05-15T02:26:01.052Z,12.86
2023-05-15T02:27:01.076Z,12.89
2023-05-15T02:28:01.123Z,12.99
2023-05-15T02:29:01.156Z,12.94
2023-05-15T02:30:01.160Z,12.92
2023-05-15T02:31:01.200Z,13.03
2023-05-15T02:32:01.284Z,13.02
2023-05-15T02:33:01.288Z,13.19
2023-05-15T02:34:01.317Z,13.11
2023-05-15T02:35:01.308Z,13.20
2023-05-15T02:36:01.328Z,13.19
2023-05-15T02:37:01.353Z,13.21
2023-05-15T02:38:01.380Z,13.28
2023-05-15T02:39:01.431Z,13.32
2023-05-15T02:40:01.442Z,13.31
2023-05-15T02:41:01.469Z,13.31
2023-05-15T02:42:01.509Z,13.36
2023-05-15T02:43:01.521Z,13.39
2023-05-15T02:44:01.550Z,13.44
2023-05-15T02:45:01.577Z,13.44
2023-05-15T02:46:01.668Z,13.53
2023-05-15T02:47:01.659Z,13.60
2023-05-15T02:48:01.746Z,13.65
2023-05-15T02:49:01.688Z,13.73
2023-05-15T02:50:01.719Z,13.86
2023-05-15T02:51:01.743Z,13.94
2023-05-15T02:52:01.779Z,14.02
2023-05-15T02:53:01.828Z,14.05
2023-05-15T02:54:01.830Z,14.02
2023-05-15T02:55:01.867Z,14.11
2023-05-15T02:56:01.880Z,14.15
2023-05-15T02:57:01.908Z,14.19
2023-05-15T02:58:01.945Z,14.19
2023-05-15T02:59:01.966Z,14.19
2023-05-15T03:00:02.042Z,14.30
2023-05-15T03:01:02.060Z,14.26
2023-05-15T03:02:02.051Z,14.34
2023-05-15T03:03:02.150Z,14.30
2023-05-15T03:04:02.145Z,14.31
2023-05-15T03:05:02.139Z,14.30
2023-05-15T03:06:02.167Z,14.31
2023-05-15T03:07:02.193Z,14.38
2023-05-15T03:08:02.215Z,14.44
2023-05-15T03:09:02.254Z,14.45
2023-05-15T03:10:02.282Z,14.39
2023-05-15T03:11:02.312Z,14.44
2023-05-15T03:12:02.350Z,14.49
2023-05-15T03:13:02.363Z,14.46
2023-05-15T03:14:02.385Z,14.44
2023-05-15T03:15:02.435Z,14.52
2023-05-15T03:16:02.488Z,14.48
2023-05-15T03:17:02.507Z,14.45
2023-05-15T03:18:02.560Z,14.53
2023-05-15T03:19:02.606Z,14.56
2023-05-15T03:20:02.556Z,14.41
2023-05-15T03:21:02.586Z,14.42
2023-05-15T03:22:02.615Z,14.49
2023-05-15T03:23:02.643Z,14.53
2023-05-15T03:24:02.669Z,14.57
2023-05-15T03:25:02.724Z,14.57
2023-05-15T03:26:02.726Z,14.57
2023-05-15T03:27:02.755Z,14.56
2023-05-15T03:28:02.782Z,14.61
2023-05-15T03:29:02.810Z,14.56
2023-05-15T03:30:02.840Z,14.53
2023-05-15T03:31:02.898Z,14.59
2023-05-15T03:32:02.892Z,14.53
2023-05-15T03:33:02.984Z,14.56
2023-05-15T03:34:02.967Z,14.53
2023-05-15T03:35:02.997Z,14.52
2023-05-15T03:36:03.012Z,14.51
2023-05-15T03:37:03.040Z,14.48
2023-05-15T03:38:03.066Z,14.48
2023-05-15T03:39:03.094Z,14.46
2023-05-15T03:40:03.135Z,14.45
2023-05-15T03:41:03.153Z,14.44
2023-05-15T03:42:03.177Z,14.53
2023-05-15T03:43:03.208Z,14.49
2023-05-15T03:44:03.239Z,14.51
2023-05-15T03:45:03.265Z,14.48
2023-05-15T03:46:03.349Z,14.42
2023-05-15T03:47:03.353Z,14.49
2023-05-15T03:48:03.390Z,14.53
2023-05-15T03:49:03.378Z,14.45
2023-05-15T03:50:03.408Z,14.45
2023-05-15T03:51:03.506Z,14.45
2023-05-15T03:52:03.462Z,14.49
2023-05-15T03:53:03.492Z,14.46
2023-05-15T03:54:03.524Z,14.44
2023-05-15T03:55:03.562Z,14.49
2023-05-15T03:56:03.576Z,14.41
2023-05-15T03:57:03.607Z,14.33
2023-05-15T03:58:03.632Z,14.41
2023-05-15T03:59:03.663Z,14.36
2023-05-15T04:00:03.690Z,14.33
2023-05-15T04:01:03.728Z,14.39
2023-05-15T04:02:05.656Z,14.34
2023-05-15T04:03:03.840Z,14.44
2023-05-15T04:04:03.806Z,14.36
2023-05-15T04:05:03.871Z,14.31
2023-05-15T04:06:03.862Z,14.46
2023-05-15T04:07:03.914Z,14.45
2023-05-15T04:08:03.950Z,14.44
2023-05-15T04:09:03.946Z,14.44
2023-05-15T04:10:03.991Z,14.41
2023-05-15T04:11:04.005Z,14.44
2023-05-15T04:12:04.046Z,14.31
2023-05-15T04:13:04.082Z,14.44
2023-05-15T04:14:04.091Z,14.45
2023-05-15T04:15:04.124Z,14.39
2023-05-15T04:16:04.262Z,14.38
2023-05-15T04:17:04.180Z,14.27
2023-05-15T04:18:04.347Z,14.30
2023-05-15T04:19:04.275Z,14.26
2023-05-15T04:20:04.261Z,14.30
2023-05-15T04:21:04.286Z,14.26
2023-05-15T04:22:04.317Z,14.24
2023-05-15T04:23:04.378Z,14.31
2023-05-15T04:24:04.378Z,14.31
2023-05-15T04:25:04.406Z,14.33
2023-05-15T04:26:04.432Z,14.30
2023-05-15T04:27:04.518Z,14.34
2023-05-15T04:28:04.499Z,14.33
2023-05-15T04:29:04.976Z,14.31
2023-05-15T04:30:04.594Z,14.31
2023-05-15T04:31:04.570Z,14.38
2023-05-15T04:32:04.664Z,14.28
2023-05-15T04:33:04.646Z,14.30
2023-05-15T04:34:04.656Z,14.31
2023-05-15T04:35:04.684Z,14.33
2023-05-15T04:36:04.712Z,14.31
2023-05-15T04:37:04.740Z,14.31
2023-05-15T04:38:04.770Z,14.38
2023-05-15T04:39:04.852Z,14.24
2023-05-15T04:40:04.830Z,14.31
2023-05-15T04:41:04.859Z,14.26
2023-05-15T04:42:04.883Z,14.30
2023-05-15T04:43:04.914Z,14.34
2023-05-15T04:44:04.954Z,14.33
2023-05-15T04:45:04.970Z,14.26
2023-05-15T04:46:05.108Z,14.26
2023-05-15T04:47:05.026Z,14.26
2023-05-15T04:48:05.114Z,14.30
2023-05-15T04:49:05.085Z,14.16
2023-05-15T04:50:05.123Z,14.20
2023-05-15T04:51:05.190Z,14.23
2023-05-15T04:52:05.165Z,14.26
2023-05-15T04:53:05.200Z,14.21
2023-05-15T04:54:05.227Z,14.23
2023-05-15T04:55:05.270Z,14.16
2023-05-15T04:56:05.277Z,14.23
2023-05-15T04:57:05.321Z,14.20
2023-05-15T04:58:05.336Z,14.15
2023-05-15T04:59:05.371Z,14.13
2023-05-15T05:00:05.394Z,14.20
2023-05-15T05:01:05.497Z,14.24
2023-05-15T05:02:05.604Z,14.16
2023-05-15T05:03:05.513Z,14.15
2023-05-15T05:04:05.561Z,14.21
2023-05-15T05:05:05.536Z,14.21
2023-05-15T05:06:05.567Z,14.30
2023-05-15T05:07:05.594Z,14.23
2023-05-15T05:08:05.617Z,14.24
2023-05-15T05:09:05.652Z,14.28
2023-05-15T05:10:05.679Z,14.21
2023-05-15T05:11:05.731Z,14.23
2023-05-15T05:12:05.743Z,14.24
2023-05-15T05:13:05.769Z,14.24
2023-05-15T05:14:05.795Z,14.21
2023-05-15T05:15:05.826Z,14.26
2023-05-15T05:16:05.930Z,14.27
2023-05-15T05:17:05.877Z,14.30
2023-05-15T05:18:05.985Z,14.24
2023-05-15T05:19:05.987Z,14.24
2023-05-15T05:20:05.962Z,14.20
2023-05-15T05:21:05.993Z,14.20
2023-05-15T05:22:06.102Z,14.24
2023-05-15T05:23:06.049Z,14.21
2023-05-15T05:24:06.085Z,14.26
2023-05-15T05:25:06.103Z,14.23
2023-05-15T05:26:06.311Z,14.28
2023-05-15T05:27:06.189Z,14.16
2023-05-15T05:28:06.189Z,14.27
2023-05-15T05:29:06.218Z,14.27
2023-05-15T05:30:06.246Z,14.24
2023-05-15T05:31:06.331Z,14.19
2023-05-15T05:32:06.309Z,14.23
2023-05-15T05:33:06.500Z,14.24
2023-05-15T05:34:06.359Z,14.24
2023-05-15T05:35:06.397Z,14.16
2023-05-15T05:36:06.424Z,14.20
2023-05-15T05:37:06.464Z,14.24
2023-05-15T05:38:06.472Z,14.20
2023-05-15T05:39:06.497Z,14.21
2023-05-15T05:40:06.529Z,14.20
2023-05-15T05:41:06.574Z,14.26
2023-05-15T05:42:06.584Z,14.12
2023-05-15T05:43:06.641Z,14.30
2023-05-15T05:44:06.639Z,14.28
2023-05-15T05:45:06.673Z,14.30
2023-05-15T05:46:06.701Z,14.30
2023-05-15T05:47:06.777Z,14.39
2023-05-15T05:48:06.901Z,14.44
2023-05-15T05:49:06.799Z,14.44
2023-05-15T05:50:06.811Z,14.44
2023-05-15T05:51:06.838Z,14.42
2023-05-15T05:52:06.867Z,14.52
2023-05-15T05:53:06.898Z,14.53
2023-05-15T05:54:06.926Z,14.48
2023-05-15T05:55:06.953Z,14.48
2023-05-15T05:56:06.986Z,14.59
2023-05-15T05:57:07.005Z,14.46
2023-05-15T05:58:14.654Z,14.53
2023-05-15T05:59:07.137Z,14.61
2023-05-15T06:00:07.091Z,14.61
2023-05-15T06:01:07.130Z,14.75
2023-05-15T06:02:07.192Z,14.70
2023-05-15T06:03:07.336Z,14.71
2023-05-15T06:04:07.299Z,14.69
2023-05-15T06:05:07.235Z,14.63
2023-05-15T06:06:07.263Z,14.51
2023-05-15T06:07:07.288Z,14.49
2023-05-15T06:08:07.329Z,14.49
2023-05-15T06:09:07.345Z,14.44
2023-05-15T06:10:07.389Z,14.44
2023-05-15T06:11:07.403Z,14.42
2023-05-15T06:12:07.436Z,14.42
2023-05-15T06:13:07.461Z,14.45
2023-05-15T06:14:07.489Z,14.52
2023-05-15T06:15:07.532Z,14.48
2023-05-15T06:16:07.568Z,14.42
2023-05-15T06:17:07.669Z,14.42
2023-05-15T06:18:07.681Z,14.48
2023-05-15T06:19:50.184Z,14.33
2023-05-15T06:20:50.215Z,14.39
2023-05-15T06:21:50.241Z,14.42
2023-05-15T06:22:50.268Z,14.36
2023-05-15T06:23:50.291Z,14.44
2023-05-15T06:24:50.323Z,14.28
2023-05-15T06:25:50.351Z,14.28
2023-05-15T06:26:50.629Z,14.23
2023-05-15T06:27:50.417Z,14.23
2023-05-15T06:28:50.440Z,14.26
2023-05-15T06:29:50.466Z,14.27
2023-05-15T06:30:50.738Z,14.31
2023-05-15T06:31:50.550Z,14.28
2023-05-15T06:32:50.632Z,14.31
2023-05-15T06:33:50.579Z,14.15
2023-05-15T06:34:50.617Z,14.24
2023-05-15T06:35:50.638Z,14.27
2023-05-15T06:36:50.664Z,14.33
2023-05-15T06:37:50.700Z,14.19
2023-05-15T06:38:50.767Z,14.23
2023-05-15T06:39:50.753Z,14.24
2023-05-15T06:40:50.780Z,14.20
2023-05-15T06:41:50.807Z,14.26
2023-05-15T06:42:50.838Z,14.31
2023-05-15T06:43:50.872Z,14.28
2023-05-15T06:44:50.909Z,14.30
2023-05-15T06:45:50.927Z,14.38
2023-05-15T06:46:51.124Z,14.38
2023-05-15T06:47:51.004Z,14.41
2023-05-15T06:48:51.006Z,14.52
2023-05-15T06:49:51.032Z,14.60
2023-05-15T06:50:51.065Z,14.77
2023-05-15T06:51:51.090Z,14.69
2023-05-15T06:52:51.121Z,14.66
2023-05-15T06:53:51.153Z,14.71
2023-05-15T06:54:51.178Z,14.74
2023-05-15T06:55:51.204Z,14.67
2023-05-15T06:56:51.234Z,14.69
2023-05-15T06:57:51.264Z,14.64
2023-05-15T06:58:52.710Z,14.56
2023-05-15T06:59:51.519Z,14.46
2023-05-15T07:02:51.583Z,14.46
2023-05-15T07:03:51.448Z,14.45
2023-05-15T07:50:52.785Z,14.67
2023-05-15T07:52:54.148Z,14.60
2023-05-15T08:04:56.223Z,14.70
2023-05-15T08:05:53.193Z,14.70
2023-05-15T08:06:53.302Z,14.74
2023-05-15T08:07:53.257Z,14.79
2023-05-15T08:08:53.276Z,14.86
2023-05-15T08:09:53.307Z,14.82
2023-05-15T08:10:53.331Z,14.87
2023-05-15T08:11:53.361Z,14.80
2023-05-15T08:12:53.393Z,14.87
2023-05-15T08:13:53.471Z,14.83
2023-05-15T08:14:53.444Z,14.83
2023-05-15T08:15:53.566Z,14.89
2023-05-15T08:16:53.514Z,14.87
2023-05-15T08:17:53.572Z,14.79
2023-05-15T08:18:53.761Z,14.79
2023-05-15T08:19:53.590Z,14.79
2023-05-15T08:20:53.627Z,14.75
2023-05-15T08:21:53.649Z,14.85
2023-05-15T08:22:53.712Z,14.86
2023-05-15T08:23:53.945Z,14.90
2023-05-15T08:24:53.744Z,14.89
2023-05-15T08:25:53.768Z,14.89
2023-05-15T08:26:53.786Z,14.82
2023-05-15T08:27:53.823Z,14.90
2023-05-15T08:28:53.845Z,14.98
2023-05-15T08:29:53.877Z,15.00
2023-05-15T08:30:53.945Z,15.00
2023-05-15T08:31:53.934Z,14.90
2023-05-15T08:32:53.992Z,14.95
2023-05-15T08:33:54.000Z,14.98
2023-05-15T08:34:54.018Z,14.97
2023-05-15T08:35:54.096Z,14.97
2023-05-15T08:36:54.079Z,15.02
2023-05-15T08:37:54.141Z,15.02
2023-05-15T08:38:54.152Z,15.07
2023-05-15T08:39:54.165Z,15.07
2023-05-15T08:40:54.199Z,15.04
2023-05-15T08:41:54.223Z,15.00
2023-05-15T08:42:54.247Z,14.97
2023-05-15T08:43:54.283Z,14.94
2023-05-15T08:44:54.305Z,14.90
2023-05-15T08:45:54.342Z,14.89
2023-05-15T08:46:54.468Z,14.85
2023-05-15T08:47:54.436Z,14.98
2023-05-15T08:48:54.510Z,15.00
2023-05-15T08:49:54.454Z,15.07
2023-05-15T08:50:54.488Z,15.07
2023-05-15T08:51:54.510Z,15.19
2023-05-15T08:52:54.543Z,15.26
2023-05-15T08:53:54.570Z,15.30
2023-05-15T08:54:54.617Z,15.37
2023-05-15T08:55:54.628Z,15.34
2023-05-15T08:56:54.654Z,15.31
2023-05-15T08:57:54.692Z,15.35
2023-05-15T08:58:54.722Z,15.33
2023-05-15T08:59:54.745Z,15.38
2023-05-15T09:00:54.782Z,15.43
2023-05-15T09:01:54.854Z,15.49
2023-05-15T09:02:54.937Z,15.58
2023-05-15T09:03:54.872Z,15.58
2023-05-15T09:04:54.894Z,15.68
2023-05-15T09:05:54.920Z,15.63
2023-05-15T09:06:54.954Z,15.63
2023-05-15T09:07:54.976Z,15.71
2023-05-15T09:08:57.629Z,15.71
2023-05-15T09:09:55.032Z,15.67
2023-05-15T09:10:55.077Z,15.60
2023-05-15T09:11:55.089Z,15.67
2023-05-15T09:12:55.114Z,15.65
2023-05-15T09:13:55.146Z,15.84
2023-05-15T09:14:55.178Z,15.96
2023-05-15T09:15:55.206Z,16.16
2023-05-15T09:16:55.286Z,16.16
2023-05-15T09:17:55.423Z,16.34
2023-05-15T09:18:55.360Z,16.36
2023-05-15T09:19:55.321Z,16.44
2023-05-15T09:20:56.357Z,16.58
2023-05-15T09:21:55.387Z,16.67
2023-05-15T09:22:58.039Z,16.77
2023-05-15T09:23:55.439Z,16.97
2023-05-15T09:25:48.043Z,17.15
2023-05-15T09:26:48.102Z,17.05
2023-05-15T09:27:48.104Z,17.31
2023-05-15T09:28:48.149Z,17.52
2023-05-15T09:29:48.163Z,17.62
2023-05-15T09:30:48.196Z,17.58
2023-05-15T09:31:48.299Z,17.46
2023-05-15T09:32:48.279Z,17.36
2023-05-15T09:33:48.310Z,17.27
2023-05-15T09:34:48.326Z,17.17
2023-05-15T09:35:48.369Z,17.21
2023-05-15T09:37:48.655Z,17.69
2023-05-15T09:38:48.565Z,18.21
2023-05-15T09:39:48.464Z,18.39
2023-05-15T09:40:48.495Z,18.89
2023-05-15T09:41:48.931Z,19.15
2023-05-15T09:42:48.617Z,19.07
2023-05-15T09:43:48.586Z,19.47
2023-05-15T09:44:48.616Z,19.42
2023-05-15T09:45:48.672Z,19.46
2023-05-15T09:46:48.830Z,18.89
2023-05-15T09:47:48.870Z,19.23
2023-05-15T09:52:48.867Z,18.23
2023-05-15T09:53:48.898Z,18.05
2023-05-15T09:54:50.425Z,18.50
2023-05-15T09:55:48.967Z,18.99
2023-05-15T09:56:48.999Z,19.63
2023-05-15T09:57:49.027Z,19.89
2023-05-15T09:58:49.077Z,20.22
2023-05-15T09:59:49.139Z,20.54
2023-05-15T10:00:49.621Z,20.86
2023-05-15T10:01:49.245Z,20.78
2023-05-15T10:02:49.210Z,21.01
2023-05-15T10:04:49.261Z,21.59
2023-05-15T10:05:49.361Z,21.77
2023-05-15T10:06:50.831Z,21.67
2023-05-15T10:07:49.356Z,21.80
2023-05-15T10:08:49.390Z,22.08
2023-05-15T10:10:49.449Z,22.15
2023-05-15T10:12:49.514Z,22.16
2023-05-15T10:13:49.534Z,21.97
2023-05-15T10:14:50.091Z,22.20
2023-05-15T10:16:49.653Z,22.59
2023-05-15T10:30:50.160Z,22.79
2023-05-15T10:32:47.765Z,22.75
2023-05-15T10:33:47.769Z,22.94
2023-05-15T10:34:47.798Z,22.92
2023-05-15T10:35:47.829Z,22.91
2023-05-15T10:36:47.862Z,22.61
2023-05-15T10:37:48.358Z,22.31
2023-05-15T10:38:47.930Z,22.20
2023-05-15T10:40:47.999Z,22.60
2023-05-15T10:41:48.227Z,22.52
2023-05-15T10:42:48.050Z,22.97
2023-05-15T10:43:48.096Z,23.09
2023-05-15T10:45:48.364Z,23.00
2023-05-15T10:46:48.680Z,22.73
2023-05-15T10:47:48.672Z,22.71
2023-05-15T10:50:48.533Z,23.12
2023-05-15T10:57:48.562Z,23.56
2023-05-15T10:58:48.614Z,23.74
2023-05-15T10:59:48.946Z,23.53
2023-05-15T11:02:49.011Z,23.22
2023-05-15T11:03:50.139Z,22.82
2023-05-15T11:04:49.497Z,22.79
2023-05-15T11:05:48.828Z,22.82
2023-05-15T11:07:49.205Z,22.76
2023-05-15T11:08:48.927Z,22.92
2023-05-15T11:09:48.967Z,22.99
2023-05-15T11:11:50.258Z,23.00
2023-05-15T11:12:49.469Z,22.91
2023-05-15T11:15:49.867Z,22.69
2023-05-15T11:16:49.255Z,22.89
2023-05-15T11:17:49.268Z,22.76
2023-05-15T11:19:49.517Z,22.64
2023-05-15T11:20:49.521Z,22.39
2023-05-15T11:24:39.908Z,22.02
2023-05-15T11:25:39.941Z,21.97
2023-05-15T11:30:45.660Z,21.92
2023-05-15T11:31:45.259Z,21.64
2023-05-15T11:33:27.849Z,21.45
2023-05-15T11:34:27.897Z,21.58
2023-05-15T11:35:28.134Z,21.46
2023-05-15T11:36:27.949Z,21.55
2023-05-15T11:37:27.978Z,21.48
2023-05-15T11:38:28.012Z,21.22
2023-05-15T11:40:28.423Z,21.06
2023-05-15T11:43:28.173Z,21.13
2023-05-15T11:44:28.222Z,21.18
2023-05-15T11:45:28.239Z,21.28
2023-05-15T11:46:28.305Z,21.38
2023-05-15T11:48:28.349Z,21.58
2023-05-15T11:49:28.382Z,21.74
2023-05-15T11:51:28.670Z,21.77
2023-05-15T11:52:28.874Z,21.25
2023-05-15T11:53:28.708Z,21.37
2023-05-15T11:54:29.346Z,21.37
2023-05-15T11:55:28.979Z,21.23
2023-05-15T11:57:28.839Z,21.00
2023-05-15T11:58:28.670Z,21.04
2023-05-15T11:59:28.889Z,21.18
2023-05-15T12:00:28.939Z,21.30
2023-05-15T12:01:28.760Z,21.48
2023-05-15T12:02:28.845Z,21.45
2023-05-15T12:04:28.875Z,21.56
2023-05-15T12:05:29.095Z,21.43
2023-05-15T12:06:28.920Z,21.40
2023-05-15T12:07:28.984Z,21.51
2023-05-15T12:08:28.977Z,21.46
2023-05-15T12:10:29.264Z,21.18
2023-05-15T12:11:29.305Z,21.13
2023-05-15T12:12:29.121Z,21.23
2023-05-15T12:13:29.863Z,21.40
2023-05-15T12:14:29.402Z,21.52
2023-05-15T12:15:29.209Z,21.62
2023-05-15T12:16:29.581Z,21.78
2023-05-15T12:17:29.504Z,21.80
2023-05-15T12:18:29.933Z,21.64
2023-05-15T12:19:29.325Z,21.59
2023-05-15T12:20:29.780Z,21.58
2023-05-15T12:21:29.402Z,21.62
2023-05-15T12:22:29.440Z,21.48
2023-05-15T12:23:29.472Z,21.55
2023-05-15T12:24:29.488Z,21.55
2023-05-15T12:25:29.530Z,21.49
2023-05-15T12:26:29.594Z,21.43
2023-05-15T12:27:29.582Z,21.55
2023-05-15T12:28:29.638Z,21.52
2023-05-15T12:29:29.975Z,21.53
2023-05-15T12:30:29.680Z,21.46
2023-05-15T12:31:29.776Z,21.34
2023-05-15T12:32:29.808Z,21.33
2023-05-15T12:33:29.989Z,21.21
2023-05-15T12:34:29.825Z,21.16
2023-05-15T12:35:29.841Z,21.13
2023-05-15T12:36:29.885Z,21.03
2023-05-15T12:37:29.900Z,21.12
2023-05-15T12:38:29.933Z,21.12
2023-05-15T12:39:29.991Z,21.13
2023-05-15T12:40:30.013Z,21.12
2023-05-15T12:41:30.029Z,21.18
2023-05-15T12:42:30.381Z,21.18
2023-05-15T12:43:30.097Z,21.21
2023-05-15T12:44:30.130Z,21.19
2023-05-15T12:45:30.152Z,21.27
2023-05-15T12:46:30.255Z,21.30
2023-05-15T12:47:30.246Z,21.31
2023-05-15T12:48:30.265Z,21.41
2023-05-15T12:49:30.281Z,21.51
2023-05-15T12:50:30.325Z,21.61
2023-05-15T12:51:30.341Z,21.64
2023-05-15T12:52:30.378Z,21.61
2023-05-15T12:53:30.406Z,21.45
2023-05-15T12:54:30.440Z,21.13
2023-05-15T12:55:30.493Z,21.08
2023-05-15T12:56:30.507Z,21.00
2023-05-15T12:57:30.532Z,21.04
2023-05-15T12:58:30.566Z,21.11
2023-05-15T12:59:30.613Z,21.16
2023-05-15T13:00:30.956Z,21.28
2023-05-15T13:01:30.675Z,21.15
2023-05-15T13:02:30.767Z,21.25
2023-05-15T13:03:31.169Z,21.25
2023-05-15T13:04:30.778Z,21.45
2023-05-15T13:05:30.795Z,21.52
2023-05-15T13:06:44.803Z,21.67
2023-05-15T13:07:30.861Z,21.77
2023-05-15T13:08:30.896Z,21.92
2023-05-15T13:09:31.227Z,21.94
2023-05-15T13:10:30.939Z,21.83
2023-05-15T13:11:31.193Z,21.80
2023-05-15T13:12:31.017Z,21.85
2023-05-15T13:13:31.046Z,21.85
2023-05-15T13:14:31.079Z,21.90
2023-05-15T13:15:31.150Z,21.85
2023-05-15T13:16:31.506Z,21.67
2023-05-15T13:17:31.192Z,21.45
2023-05-15T13:18:31.205Z,21.46
2023-05-15T13:19:31.236Z,21.48
2023-05-15T13:20:31.267Z,21.40
2023-05-15T13:21:31.297Z,21.46
2023-05-15T13:22:31.330Z,21.46
2023-05-15T13:23:31.345Z,21.46
2023-05-15T13:25:32.309Z,21.70
2023-05-15T13:27:31.492Z,21.82
2023-05-15T13:28:31.517Z,21.86
2023-05-15T13:30:31.579Z,21.89
2023-05-15T13:31:31.619Z,21.92
2023-05-15T13:32:31.662Z,21.92
2023-05-15T13:33:31.661Z,21.86
2023-05-15T13:34:31.710Z,21.96
2023-05-15T13:36:31.780Z,21.93
2023-05-15T13:37:31.801Z,21.93
2023-05-15T13:38:31.837Z,21.86
2023-05-15T13:39:32.174Z,21.93
2023-05-15T13:40:32.206Z,22.04
2023-05-15T13:41:32.120Z,21.97
2023-05-15T13:42:31.969Z,21.96
2023-05-15T13:44:32.039Z,22.08
2023-05-15T13:45:32.053Z,21.94
2023-05-15T13:46:32.212Z,22.08
2023-05-15T13:47:32.186Z,22.15
2023-05-15T13:48:32.146Z,22.29
2023-05-15T13:49:32.170Z,22.24
2023-05-15T13:50:32.204Z,22.20
2023-05-15T13:52:32.287Z,22.07
2023-05-15T13:53:32.319Z,21.94
2023-05-15T13:54:32.332Z,21.89
2023-05-15T13:55:32.397Z,21.96
2023-05-15T13:57:32.451Z,22.22
2023-05-15T13:58:32.671Z,22.11
2023-05-15T13:59:32.508Z,22.18
2023-05-15T14:00:32.549Z,22.30
2023-05-15T14:01:32.774Z,22.30
2023-05-15T14:02:32.638Z,22.38
2023-05-15T14:03:33.418Z,22.31
2023-05-15T14:04:33.378Z,22.41
2023-05-15T14:05:32.683Z,22.18
2023-05-15T14:06:32.710Z,22.14
2023-05-15T14:07:32.747Z,22.15
2023-05-15T14:09:33.009Z,22.18
2023-05-15T14:11:33.074Z,21.97
2023-05-15T14:12:33.129Z,21.94
2023-05-15T14:13:32.950Z,21.80
2023-05-15T14:14:32.986Z,21.96
2023-05-15T14:15:33.018Z,21.94
2023-05-15T14:16:33.108Z,21.82
2023-05-15T14:17:33.095Z,21.85
2023-05-15T14:18:33.129Z,21.76
2023-05-15T14:19:33.142Z,21.77
2023-05-15T14:20:33.157Z,21.67
2023-05-15T14:21:33.199Z,21.52
2023-05-15T14:22:33.231Z,21.49
2023-05-15T14:23:33.264Z,21.43
2023-05-15T14:26:33.361Z,21.62
2023-05-15T14:27:33.919Z,21.53
2023-05-15T14:28:33.424Z,21.48
2023-05-15T14:29:33.456Z,21.31
2023-05-15T14:30:34.081Z,21.27
2023-05-15T14:32:33.641Z,21.11
2023-05-15T14:33:33.586Z,21.11
2023-05-15T14:34:33.605Z,21.23
2023-05-15T14:35:33.649Z,21.23
2023-05-15T14:36:34.379Z,21.28
2023-05-15T14:37:33.708Z,21.45
2023-05-15T14:38:34.033Z,21.51
2023-05-15T14:39:33.980Z,21.58
2023-05-15T14:41:33.842Z,21.51
2023-05-15T14:42:34.474Z,21.37
2023-05-15T14:43:34.104Z,21.51
2023-05-15T14:44:34.440Z,21.40
2023-05-15T14:46:34.659Z,21.12
2023-05-15T14:48:34.226Z,21.13
2023-05-15T14:49:34.593Z,21.22
2023-05-15T14:50:34.320Z,21.33
2023-05-15T14:52:34.887Z,21.48
2023-05-15T14:56:35.225Z,21.62
2023-05-15T14:57:34.341Z,21.61
2023-05-15T14:59:34.609Z,21.23
2023-05-15T15:00:35.144Z,21.16
2023-05-15T15:03:35.600Z,20.76
2023-05-15T15:05:34.794Z,20.56
2023-05-15T15:06:34.619Z,20.44
2023-05-15T15:07:36.876Z,20.34
2023-05-15T15:09:34.727Z,20.29
2023-05-15T15:12:35.129Z,20.30
2023-05-15T15:15:35.310Z,20.40
2023-05-15T15:30:35.380Z,20.64
2023-05-15T15:31:35.863Z,20.58
2023-05-15T15:32:35.441Z,20.51